sensor_id;sensor_type;location;lat;lon;timestamp;P1;durP1;ratioP1;P2;durP2;ratioP2
77217;SDS011;66214;51.302;17.068;2023-02-01T14:03:43;6.40;;;2.50;;
77217;SDS011;66214;51.302;17.068;2023-02-01T14:09:34;5.30;;;2.30;;
77217;SDS011;66214;51.302;17.068;2023-02-01T14:12:47;6.30;;;2.40;;
77217;SDS011;66214;51.302;17.068;2023-02-01T14:15:20;7.90;;;2.10;;
77217;SDS011;66214;51.302;17.068;2023-02-01T14:17:50;3.60;;;1.60;;
77217;SDS011;66214;51.302;17.068;2023-02-01T14:23:14;8.90;;;2.40;;
77217;SDS011;66214;51.302;17.068;2023-02-01T14:25:44;5.80;;;2.30;;
77217;SDS011;66214;51.302;17.068;2023-02-01T14:28:29;5.00;;;1.70;;
77217;SDS011;66214;51.302;17.068;2023-02-01T14:30:58;10.40;;;2.20;;
77217;SDS011;66214;51.302;17.068;2023-02-01T14:37:00;7.70;;;2.50;;
77217;SDS011;66214;51.302;17.068;2023-02-01T14:39:38;7.50;;;2.20;;
77217;SDS011;66214;51.302;17.068;2023-02-01T14:50:38;5.80;;;2.20;;
77217;SDS011;66214;51.302;17.068;2023-02-01T14:58:39;6.30;;;2.60;;
77217;SDS011;66214;51.302;17.068;2023-02-01T15:01:28;8.50;;;3.20;;
77217;SDS011;66214;51.302;17.068;2023-02-01T15:04:10;11.60;;;3.60;;
77217;SDS011;66214;51.302;17.068;2023-02-01T15:10:15;10.90;;;4.10;;
77217;SDS011;66214;51.302;17.068;2023-02-01T15:12:45;10.10;;;4.10;;
77217;SDS011;66214;51.302;17.068;2023-02-01T15:15:18;8.00;;;2.80;;
77217;SDS011;66214;51.302;17.068;2023-02-01T15:18:00;11.00;;;3.40;;
77217;SDS011;66214;51.302;17.068;2023-02-01T15:20:30;4.80;;;1.70;;
77217;SDS011;66214;51.302;17.068;2023-02-01T15:23:02;7.80;;;2.20;;
77217;SDS011;66214;51.302;17.068;2023-02-01T15:25:37;11.30;;;3.50;;
77217;SDS011;66214;51.302;17.068;2023-02-01T15:28:13;11.70;;;3.90;;
77217;SDS011;66214;51.302;17.068;2023-02-01T15:31:00;13.80;;;5.40;;
77217;SDS011;66214;51.302;17.068;2023-02-01T15:33:31;18.60;;;5.10;;
77217;SDS011;66214;51.302;17.068;2023-02-01T15:42:01;36.50;;;11.20;;
77217;SDS011;66214;51.302;17.068;2023-02-01T15:44:40;10.40;;;4.30;;
77217;SDS011;66214;51.302;17.068;2023-02-01T15:47:20;17.20;;;7.10;;
77217;SDS011;66214;51.302;17.068;2023-02-01T15:49:53;8.50;;;3.20;;
77217;SDS011;66214;51.302;17.068;2023-02-01T15:52:42;13.40;;;3.30;;
77217;SDS011;66214;51.302;17.068;2023-02-01T15:58:17;20.20;;;10.10;;
77217;SDS011;66214;51.302;17.068;2023-02-01T16:00:52;21.80;;;10.70;;
77217;SDS011;66214;51.302;17.068;2023-02-01T16:03:37;20.80;;;11.40;;
77217;SDS011;66214;51.302;17.068;2023-02-01T16:06:11;17.10;;;7.50;;
77217;SDS011;66214;51.302;17.068;2023-02-01T16:09:00;13.50;;;5.70;;
77217;SDS011;66214;51.302;17.068;2023-02-01T16:11:39;8.70;;;2.80;;
77217;SDS011;66214;51.302;17.068;2023-02-01T16:14:09;9.00;;;3.60;;
77217;SDS011;66214;51.302;17.068;2023-02-01T16:16:37;15.60;;;3.90;;
77217;SDS011;66214;51.302;17.068;2023-02-01T16:19:05;9.80;;;3.50;;
77217;SDS011;66214;51.302;17.068;2023-02-01T16:21:33;10.70;;;3.20;;
77217;SDS011;66214;51.302;17.068;2023-02-01T16:24:01;10.30;;;3.90;;
77217;SDS011;66214;51.302;17.068;2023-02-01T16:26:32;8.10;;;3.50;;
77217;SDS011;66214;51.302;17.068;2023-02-01T16:29:01;7.40;;;3.00;;
77217;SDS011;66214;51.302;17.068;2023-02-01T16:31:37;9.60;;;5.00;;
77217;SDS011;66214;51.302;17.068;2023-02-01T16:34:14;9.20;;;2.80;;
77217;SDS011;66214;51.302;17.068;2023-02-01T16:36:49;10.50;;;3.90;;
77217;SDS011;66214;51.302;17.068;2023-02-01T16:39:24;15.00;;;5.50;;
77217;SDS011;66214;51.302;17.068;2023-02-01T16:41:55;14.10;;;8.20;;
77217;SDS011;66214;51.302;17.068;2023-02-01T16:44:23;12.10;;;6.50;;
77217;SDS011;66214;51.302;17.068;2023-02-01T16:46:51;20.30;;;8.30;;
77217;SDS011;66214;51.302;17.068;2023-02-01T16:49:24;16.40;;;6.60;;
77217;SDS011;66214;51.302;17.068;2023-02-01T16:51:57;9.10;;;4.10;;
77217;SDS011;66214;51.302;17.068;2023-02-01T16:54:26;11.60;;;4.80;;
77217;SDS011;66214;51.302;17.068;2023-02-01T16:56:54;19.80;;;7.80;;
77217;SDS011;66214;51.302;17.068;2023-02-01T16:59:23;10.70;;;5.40;;
77217;SDS011;66214;51.302;17.068;2023-02-01T17:01:51;15.20;;;6.10;;
77217;SDS011;66214;51.302;17.068;2023-02-01T17:04:19;14.60;;;6.40;;
77217;SDS011;66214;51.302;17.068;2023-02-01T17:06:48;24.80;;;12.60;;
77217;SDS011;66214;51.302;17.068;2023-02-01T17:09:16;27.20;;;12.90;;
77217;SDS011;66214;51.302;17.068;2023-02-01T17:11:44;17.50;;;5.30;;
77217;SDS011;66214;51.302;17.068;2023-02-01T17:14:17;11.90;;;5.10;;
77217;SDS011;66214;51.302;17.068;2023-02-01T17:16:48;15.10;;;6.00;;
77217;SDS011;66214;51.302;17.068;2023-02-01T17:19:19;9.50;;;4.70;;
77217;SDS011;66214;51.302;17.068;2023-02-01T17:21:52;13.80;;;7.00;;
77217;SDS011;66214;51.302;17.068;2023-02-01T17:24:26;11.90;;;7.20;;
77217;SDS011;66214;51.302;17.068;2023-02-01T17:26:56;17.20;;;10.30;;
77217;SDS011;66214;51.302;17.068;2023-02-01T17:29:24;20.10;;;10.60;;
77217;SDS011;66214;51.302;17.068;2023-02-01T17:31:54;23.20;;;11.40;;
77217;SDS011;66214;51.302;17.068;2023-02-01T17:34:23;26.80;;;10.60;;
77217;SDS011;66214;51.302;17.068;2023-02-01T17:36:51;26.00;;;10.30;;
77217;SDS011;66214;51.302;17.068;2023-02-01T17:39:19;9.90;;;4.90;;
77217;SDS011;66214;51.302;17.068;2023-02-01T17:42:10;11.60;;;4.50;;
77217;SDS011;66214;51.302;17.068;2023-02-01T17:44:38;9.40;;;4.20;;
77217;SDS011;66214;51.302;17.068;2023-02-01T17:47:06;9.10;;;4.20;;
77217;SDS011;66214;51.302;17.068;2023-02-01T17:49:34;7.90;;;3.30;;
77217;SDS011;66214;51.302;17.068;2023-02-01T17:52:03;16.10;;;7.70;;
77217;SDS011;66214;51.302;17.068;2023-02-01T17:54:32;22.10;;;9.80;;
77217;SDS011;66214;51.302;17.068;2023-02-01T17:57:00;27.30;;;10.50;;
77217;SDS011;66214;51.302;17.068;2023-02-01T17:59:30;12.30;;;5.70;;
77217;SDS011;66214;51.302;17.068;2023-02-01T18:01:58;15.40;;;6.10;;
77217;SDS011;66214;51.302;17.068;2023-02-01T18:04:28;13.00;;;5.10;;
77217;SDS011;66214;51.302;17.068;2023-02-01T18:06:56;10.80;;;4.10;;
77217;SDS011;66214;51.302;17.068;2023-02-01T18:09:24;20.90;;;9.40;;
77217;SDS011;66214;51.302;17.068;2023-02-01T18:11:52;24.40;;;13.30;;
77217;SDS011;66214;51.302;17.068;2023-02-01T18:14:22;20.20;;;9.10;;
77217;SDS011;66214;51.302;17.068;2023-02-01T18:16:50;20.90;;;10.50;;
77217;SDS011;66214;51.302;17.068;2023-02-01T18:19:18;20.60;;;9.20;;
77217;SDS011;66214;51.302;17.068;2023-02-01T18:21:46;16.90;;;7.50;;
77217;SDS011;66214;51.302;17.068;2023-02-01T18:24:15;14.20;;;7.10;;
77217;SDS011;66214;51.302;17.068;2023-02-01T18:26:44;16.40;;;7.30;;
77217;SDS011;66214;51.302;17.068;2023-02-01T18:29:12;16.00;;;9.60;;
77217;SDS011;66214;51.302;17.068;2023-02-01T18:31:44;21.40;;;10.50;;
77217;SDS011;66214;51.302;17.068;2023-02-01T18:34:14;25.00;;;11.70;;
77217;SDS011;66214;51.302;17.068;2023-02-01T18:36:51;29.30;;;14.10;;
77217;SDS011;66214;51.302;17.068;2023-02-01T18:39:19;24.60;;;12.10;;
77217;SDS011;66214;51.302;17.068;2023-02-01T18:41:48;16.00;;;8.20;;
77217;SDS011;66214;51.302;17.068;2023-02-01T18:44:18;15.80;;;8.30;;
77217;SDS011;66214;51.302;17.068;2023-02-01T18:46:46;16.00;;;6.30;;
77217;SDS011;66214;51.302;17.068;2023-02-01T18:49:14;17.20;;;8.00;;
77217;SDS011;66214;51.302;17.068;2023-02-01T18:51:44;16.10;;;6.90;;
77217;SDS011;66214;51.302;17.068;2023-02-01T18:54:13;16.70;;;6.60;;
77217;SDS011;66214;51.302;17.068;2023-02-01T18:56:41;10.60;;;6.10;;
77217;SDS011;66214;51.302;17.068;2023-02-01T18:59:10;12.00;;;5.30;;
77217;SDS011;66214;51.302;17.068;2023-02-01T19:01:38;15.00;;;7.30;;
77217;SDS011;66214;51.302;17.068;2023-02-01T19:04:06;11.40;;;4.80;;
77217;SDS011;66214;51.302;17.068;2023-02-01T19:06:34;18.20;;;8.50;;
77217;SDS011;66214;51.302;17.068;2023-02-01T19:09:02;10.50;;;4.10;;
77217;SDS011;66214;51.302;17.068;2023-02-01T19:11:30;19.70;;;8.80;;
77217;SDS011;66214;51.302;17.068;2023-02-01T19:13:58;15.10;;;6.00;;
77217;SDS011;66214;51.302;17.068;2023-02-01T19:16:26;10.80;;;3.50;;
77217;SDS011;66214;51.302;17.068;2023-02-01T19:18:54;20.30;;;7.80;;
77217;SDS011;66214;51.302;17.068;2023-02-01T19:21:22;10.30;;;5.10;;
77217;SDS011;66214;51.302;17.068;2023-02-01T19:23:50;10.90;;;5.00;;
77217;SDS011;66214;51.302;17.068;2023-02-01T19:26:18;8.50;;;3.40;;
77217;SDS011;66214;51.302;17.068;2023-02-01T19:28:46;11.40;;;6.00;;
77217;SDS011;66214;51.302;17.068;2023-02-01T19:31:15;19.50;;;8.70;;
77217;SDS011;66214;51.302;17.068;2023-02-01T19:33:44;22.20;;;8.40;;
77217;SDS011;66214;51.302;17.068;2023-02-01T19:36:12;17.00;;;9.30;;
77217;SDS011;66214;51.302;17.068;2023-02-01T19:38:40;15.80;;;6.40;;
77217;SDS011;66214;51.302;17.068;2023-02-01T19:41:08;18.40;;;9.20;;
77217;SDS011;66214;51.302;17.068;2023-02-01T19:43:36;14.70;;;6.20;;
77217;SDS011;66214;51.302;17.068;2023-02-01T19:46:06;13.60;;;5.90;;
77217;SDS011;66214;51.302;17.068;2023-02-01T19:48:34;9.60;;;5.50;;
77217;SDS011;66214;51.302;17.068;2023-02-01T19:51:02;11.00;;;5.80;;
77217;SDS011;66214;51.302;17.068;2023-02-01T19:53:30;8.10;;;3.90;;
77217;SDS011;66214;51.302;17.068;2023-02-01T19:55:58;8.10;;;4.30;;
77217;SDS011;66214;51.302;17.068;2023-02-01T19:58:28;13.20;;;3.50;;
77217;SDS011;66214;51.302;17.068;2023-02-01T20:00:57;19.50;;;6.70;;
77217;SDS011;66214;51.302;17.068;2023-02-01T20:03:27;9.00;;;3.80;;
77217;SDS011;66214;51.302;17.068;2023-02-01T20:05:57;6.90;;;3.10;;
77217;SDS011;66214;51.302;17.068;2023-02-01T20:08:26;8.20;;;2.80;;
77217;SDS011;66214;51.302;17.068;2023-02-01T20:10:54;9.80;;;2.70;;
77217;SDS011;66214;51.302;17.068;2023-02-01T20:13:22;5.70;;;2.20;;
77217;SDS011;66214;51.302;17.068;2023-02-01T20:15:56;4.70;;;1.60;;
77217;SDS011;66214;51.302;17.068;2023-02-01T20:18:26;4.30;;;1.70;;
77217;SDS011;66214;51.302;17.068;2023-02-01T20:20:58;3.70;;;1.30;;
77217;SDS011;66214;51.302;17.068;2023-02-01T20:23:28;4.10;;;1.70;;
77217;SDS011;66214;51.302;17.068;2023-02-01T20:26:06;4.30;;;1.20;;
77217;SDS011;66214;51.302;17.068;2023-02-01T20:28:35;2.40;;;1.30;;
77217;SDS011;66214;51.302;17.068;2023-02-01T20:31:03;2.40;;;1.10;;
77217;SDS011;66214;51.302;17.068;2023-02-01T20:33:32;4.20;;;2.00;;
77217;SDS011;66214;51.302;17.068;2023-02-01T20:39:26;3.00;;;1.50;;
77217;SDS011;66214;51.302;17.068;2023-02-01T20:41:54;5.30;;;1.90;;
77217;SDS011;66214;51.302;17.068;2023-02-01T20:44:22;4.30;;;1.50;;
77217;SDS011;66214;51.302;17.068;2023-02-01T20:46:50;4.00;;;1.80;;
77217;SDS011;66214;51.302;17.068;2023-02-01T20:49:18;6.10;;;2.80;;
77217;SDS011;66214;51.302;17.068;2023-02-01T20:51:46;2.60;;;1.10;;
77217;SDS011;66214;51.302;17.068;2023-02-01T20:54:13;2.70;;;1.10;;
77217;SDS011;66214;51.302;17.068;2023-02-01T20:56:41;4.10;;;1.50;;
77217;SDS011;66214;51.302;17.068;2023-02-01T20:59:09;3.40;;;1.30;;
77217;SDS011;66214;51.302;17.068;2023-02-01T21:01:38;3.60;;;1.60;;
77217;SDS011;66214;51.302;17.068;2023-02-01T21:04:21;2.80;;;1.10;;
77217;SDS011;66214;51.302;17.068;2023-02-01T21:06:53;5.70;;;1.90;;
77217;SDS011;66214;51.302;17.068;2023-02-01T21:09:22;8.10;;;2.60;;
77217;SDS011;66214;51.302;17.068;2023-02-01T21:11:52;5.30;;;2.30;;
77217;SDS011;66214;51.302;17.068;2023-02-01T21:14:21;6.20;;;2.40;;
77217;SDS011;66214;51.302;17.068;2023-02-01T21:16:49;5.60;;;1.70;;
77217;SDS011;66214;51.302;17.068;2023-02-01T21:19:16;5.80;;;1.70;;
77217;SDS011;66214;51.302;17.068;2023-02-01T21:21:45;3.80;;;1.60;;
77217;SDS011;66214;51.302;17.068;2023-02-01T21:24:13;8.80;;;3.20;;
77217;SDS011;66214;51.302;17.068;2023-02-01T21:26:41;6.00;;;2.30;;
77217;SDS011;66214;51.302;17.068;2023-02-01T21:29:13;5.40;;;2.00;;
77217;SDS011;66214;51.302;17.068;2023-02-01T21:31:42;3.30;;;1.50;;
77217;SDS011;66214;51.302;17.068;2023-02-01T21:34:10;6.00;;;2.10;;
77217;SDS011;66214;51.302;17.068;2023-02-01T21:36:38;3.80;;;1.70;;
77217;SDS011;66214;51.302;17.068;2023-02-01T21:39:07;4.60;;;1.80;;
77217;SDS011;66214;51.302;17.068;2023-02-01T21:41:37;5.00;;;2.10;;
77217;SDS011;66214;51.302;17.068;2023-02-01T21:44:25;6.70;;;2.90;;
77217;SDS011;66214;51.302;17.068;2023-02-01T21:46:52;5.40;;;2.40;;
77217;SDS011;66214;51.302;17.068;2023-02-01T21:49:23;8.80;;;2.40;;
77217;SDS011;66214;51.302;17.068;2023-02-01T21:51:52;5.40;;;2.20;;
77217;SDS011;66214;51.302;17.068;2023-02-01T21:54:21;5.80;;;1.90;;
77217;SDS011;66214;51.302;17.068;2023-02-01T21:56:49;5.50;;;2.30;;
77217;SDS011;66214;51.302;17.068;2023-02-01T21:59:17;7.60;;;2.60;;
77217;SDS011;66214;51.302;17.068;2023-02-01T22:01:45;7.30;;;2.80;;
77217;SDS011;66214;51.302;17.068;2023-02-01T22:04:14;6.40;;;3.20;;
77217;SDS011;66214;51.302;17.068;2023-02-01T22:06:43;11.10;;;3.90;;
77217;SDS011;66214;51.302;17.068;2023-02-01T22:09:18;7.80;;;3.40;;
77217;SDS011;66214;51.302;17.068;2023-02-01T22:11:49;10.90;;;3.80;;
77217;SDS011;66214;51.302;17.068;2023-02-01T22:14:19;6.80;;;3.60;;
77217;SDS011;66214;51.302;17.068;2023-02-01T22:16:48;8.60;;;3.40;;
77217;SDS011;66214;51.302;17.068;2023-02-01T22:19:17;5.30;;;2.30;;
77217;SDS011;66214;51.302;17.068;2023-02-01T22:21:46;8.20;;;3.50;;
77217;SDS011;66214;51.302;17.068;2023-02-01T22:24:16;7.40;;;3.30;;
77217;SDS011;66214;51.302;17.068;2023-02-01T22:26:47;6.30;;;2.80;;
77217;SDS011;66214;51.302;17.068;2023-02-01T22:29:16;6.70;;;3.20;;
77217;SDS011;66214;51.302;17.068;2023-02-01T22:31:46;6.60;;;2.80;;
77217;SDS011;66214;51.302;17.068;2023-02-01T22:34:14;9.50;;;3.30;;
77217;SDS011;66214;51.302;17.068;2023-02-01T22:36:44;8.00;;;3.70;;
77217;SDS011;66214;51.302;17.068;2023-02-01T22:39:15;9.60;;;3.60;;
77217;SDS011;66214;51.302;17.068;2023-02-01T22:41:43;12.60;;;2.90;;
77217;SDS011;66214;51.302;17.068;2023-02-01T22:44:11;10.80;;;2.80;;
77217;SDS011;66214;51.302;17.068;2023-02-01T22:46:39;9.90;;;4.10;;
77217;SDS011;66214;51.302;17.068;2023-02-01T22:49:08;8.10;;;2.80;;
77217;SDS011;66214;51.302;17.068;2023-02-01T22:51:36;9.30;;;2.90;;
77217;SDS011;66214;51.302;17.068;2023-02-01T22:54:04;15.50;;;4.90;;
77217;SDS011;66214;51.302;17.068;2023-02-01T22:56:35;16.90;;;4.90;;
77217;SDS011;66214;51.302;17.068;2023-02-01T22:59:05;8.90;;;3.30;;
77217;SDS011;66214;51.302;17.068;2023-02-01T23:01:36;12.90;;;5.10;;
77217;SDS011;66214;51.302;17.068;2023-02-01T23:04:05;11.80;;;4.60;;
77217;SDS011;66214;51.302;17.068;2023-02-01T23:06:34;12.00;;;3.70;;
77217;SDS011;66214;51.302;17.068;2023-02-01T23:09:11;15.50;;;5.60;;
77217;SDS011;66214;51.302;17.068;2023-02-01T23:11:44;6.50;;;2.70;;
77217;SDS011;66214;51.302;17.068;2023-02-01T23:14:14;15.80;;;5.10;;
77217;SDS011;66214;51.302;17.068;2023-02-01T23:16:43;12.30;;;3.80;;
77217;SDS011;66214;51.302;17.068;2023-02-01T23:19:13;16.30;;;4.70;;
77217;SDS011;66214;51.302;17.068;2023-02-01T23:21:41;15.70;;;4.70;;
77217;SDS011;66214;51.302;17.068;2023-02-01T23:24:09;17.50;;;5.70;;
77217;SDS011;66214;51.302;17.068;2023-02-01T23:26:38;20.30;;;4.80;;
77217;SDS011;66214;51.302;17.068;2023-02-01T23:29:06;13.30;;;4.70;;
77217;SDS011;66214;51.302;17.068;2023-02-01T23:31:34;19.90;;;4.80;;
77217;SDS011;66214;51.302;17.068;2023-02-01T23:34:03;16.10;;;5.40;;
77217;SDS011;66214;51.302;17.068;2023-02-01T23:36:31;14.20;;;4.50;;
77217;SDS011;66214;51.302;17.068;2023-02-01T23:38:59;9.00;;;3.20;;
77217;SDS011;66214;51.302;17.068;2023-02-01T23:41:27;22.50;;;6.30;;
77217;SDS011;66214;51.302;17.068;2023-02-01T23:43:56;16.60;;;4.00;;
77217;SDS011;66214;51.302;17.068;2023-02-01T23:46:29;14.10;;;5.20;;
77217;SDS011;66214;51.302;17.068;2023-02-01T23:49:05;24.40;;;4.90;;
77217;SDS011;66214;51.302;17.068;2023-02-01T23:51:35;15.90;;;4.20;;
77217;SDS011;66214;51.302;17.068;2023-02-01T23:54:04;15.70;;;5.00;;
77217;SDS011;66214;51.302;17.068;2023-02-01T23:56:38;10.20;;;3.20;;
